Hovedside
METAR-TAF:

METAR-TAF

Lufthavner :

Kristiansand, Norge

Kristiansand lufthavn

breddegrad: 58-12N, lengdegrad: 008-05E, høyde over havet: 1 m

Gjeldene værobservasjon

Denne rapporten ble laget for 18 minutter siden, klokken 18:20 UTC
Vind 4 kt fra Øst-nordøst
Temperatur 11°C
Luftfuktighet 87%
Trykk 1024 hPa
Sikt 10 km eller mer
Spredte skyer i en høyde av 4700 ft

METAR: ENCN 221820Z 06004KT 9999 SCT047 11/09 Q1024

Tid: 20:38 (18:38 UTC)

Varsel

Denne rapporten ble laget for 1 time og 38 minutter siden, klokken 17:00 UTC
Varsel gyldig fra 22. klokken 18 UTC til 22. klokken 21 UTC
Vind 8 kt fra Øst-nordøst
Sikt 10 km eller mer
Få skyer i en høyde av 1200 ft
Brutte skyer i en høyde av 2000 ft
Sannsynlighet 40%
fra 22. klokken 19 UTC til 22. klokken 21 UTC
Brutte skyer i en høyde av 1200 ft

TAF: ENCN 221700Z 2218/2221 07008KT 9999 FEW012 BKN020 PROB40 2219/2221 BKN012

Værobservasjoner og værvarsel for over 4000 flyplasser (METAR- og TAF-rapporter).

Tilgjengelige stasjoner er representert av de røde og gule prikkene på kartet.

Hold musepekeren over prikken for å se navnet på stasjonen.

Klikk så for å se værobservasjoner og -varsler.

For å forandre kartet kan du klikke på den grønne knappen med svart kryss for å zoome inn, på den grønne knappen med strek for å zoome ut, eller på de grønne pilene for å se tilstøtende kart.


METAR-TAF: